Time;durP1;ratioP1;P1;durP2;ratioP2;P2;SDS_P1;SDS_P2;PMS_P1;PMS_P2;Temp;Humidity;BMP_temperature;BMP_pressure;BME280_temperature;BME280_humidity;BME280_pressure;Samples;Min_cycle;Max_cycle;Signal;HPM_P1;HPM_P2
2023/04/28 00:01:07;;;;;;;2.65;1.30;;;;;;;8.51;66.22;100223.17;1724774;83;21161;-59
2023/04/28 00:03:36;;;;;;;3.47;1.45;;;;;;;8.50;65.92;100215.17;1724294;83;21134;-57
2023/04/28 00:06:06;;;;;;;2.95;1.35;;;;;;;8.47;65.56;100217.76;1724223;83;21636;-57
2023/04/28 00:08:35;;;;;;;6.87;1.50;;;;;;;8.43;65.36;100212.83;1724281;83;21635;-58
2023/04/28 00:11:09;;;;;;;3.52;1.50;;;;;;;8.43;65.61;100220.50;1716019;83;21123;-58
2023/04/28 00:13:39;;;;;;;2.70;1.47;;;;;;;8.44;65.68;100211.80;1704098;83;21175;-59
2023/04/28 00:16:08;;;;;;;7.62;1.40;;;;;;;8.44;65.69;100219.47;1703981;83;21649;-59
2023/04/28 00:18:37;;;;;;;3.77;1.30;;;;;;;8.43;65.70;100216.41;1703929;84;21163;-59
2023/04/28 00:21:07;;;;;;;3.95;1.60;;;;;;;8.43;65.19;100227.84;1703911;84;21139;-58
2023/04/28 00:23:36;;;;;;;3.27;1.42;;;;;;;8.41;65.39;100228.55;1704205;83;21135;-57
2023/04/28 00:26:05;;;;;;;3.75;1.52;;;;;;;8.41;65.31;100232.65;1704060;84;21170;-60
2023/04/28 00:28:34;;;;;;;2.95;1.40;;;;;;;8.41;65.27;100236.22;1704076;84;21124;-59
2023/04/28 00:31:12;;;;;;;2.67;1.10;;;;;;;8.41;65.01;100237.59;1703987;83;21171;-58
2023/04/28 00:33:41;;;;;;;3.10;1.32;;;;;;;8.38;64.93;100243.42;1703945;84;21139;-59
2023/04/28 00:36:10;;;;;;;3.58;1.37;;;;;;;8.37;64.99;100239.00;1703808;83;21131;-58
2023/04/28 00:38:40;;;;;;;4.10;1.35;;;;;;;8.37;65.09;100248.55;1704091;84;21135;-59
2023/04/28 00:41:11;;;;;;;4.85;1.37;;;;;;;8.36;64.91;100242.77;1703919;84;21163;-58
2023/04/28 00:43:46;;;;;;;2.37;1.35;;;;;;;8.35;64.88;100237.49;1703937;83;21171;-57
2023/04/28 00:46:21;;;;;;;4.75;1.57;;;;;;;8.34;64.73;100243.47;1703829;84;21131;-58
2023/04/28 00:48:51;;;;;;;2.35;1.20;;;;;;;8.34;64.55;100242.62;1704388;83;21178;-59
2023/04/28 00:51:22;;;;;;;2.62;1.40;;;;;;;8.33;64.50;100243.63;1704056;83;21115;-58
2023/04/28 00:53:51;;;;;;;4.05;1.42;;;;;;;8.31;64.09;100246.54;1704134;84;21128;-57
2023/04/28 00:56:21;;;;;;;3.77;1.77;;;;;;;8.31;64.10;100259.34;1704048;84;21567;-58
2023/04/28 00:58:51;;;;;;;2.90;1.22;;;;;;;8.32;64.13;100260.52;1703821;83;21668;-58
2023/04/28 01:01:21;;;;;;;2.77;1.30;;;;;;;8.32;63.57;100271.44;1704192;83;21269;-57
2023/04/28 01:03:50;;;;;;;3.98;1.55;;;;;;;8.29;63.50;100269.08;1703886;83;21135;-58
2023/04/28 01:06:21;;;;;;;2.25;1.32;;;;;;;8.28;63.49;100268.75;1704025;83;21139;-59
2023/04/28 01:08:50;;;;;;;2.55;1.15;;;;;;;8.30;63.52;100273.51;1704176;84;21103;-59
2023/04/28 01:11:19;;;;;;;2.60;1.07;;;;;;;8.28;63.28;100271.48;1711328;83;21546;-58
2023/04/28 01:14:07;;;;;;;4.55;1.30;;;;;;;8.27;63.23;100273.88;1724326;83;21153;-58
2023/04/28 01:16:39;;;;;;;6.50;1.30;;;;;;;8.27;63.14;100268.42;1724290;83;21160;-58
2023/04/28 01:19:08;;;;;;;3.70;1.50;;;;;;;8.25;63.05;100274.58;1724216;83;21130;-59
2023/04/28 01:21:38;;;;;;;2.98;1.52;;;;;;;8.22;62.98;100270.34;1724304;83;21138;-59
2023/04/28 01:24:19;;;;;;;4.75;1.70;;;;;;;8.23;63.17;100278.02;1723340;83;21165;-59
2023/04/28 01:26:48;;;;;;;3.12;1.30;;;;;;;8.21;63.04;100271.37;1724236;83;21631;-57
2023/04/28 01:29:16;;;;;;;2.98;1.27;;;;;;;8.20;62.97;100275.14;1724538;83;21138;-56
2023/04/28 01:31:45;;;;;;;4.05;1.57;;;;;;;8.18;63.01;100276.36;1724644;83;21130;-57
2023/04/28 01:34:16;;;;;;;4.08;1.45;;;;;;;8.18;62.93;100280.45;1724330;83;21127;-58
2023/04/28 01:36:46;;;;;;;4.03;1.30;;;;;;;8.16;62.91;100277.06;1724319;83;21174;-58
2023/04/28 01:39:16;;;;;;;3.22;1.25;;;;;;;8.13;62.88;100276.91;1724480;83;21604;-59
2023/04/28 01:41:46;;;;;;;3.92;1.40;;;;;;;8.12;62.90;100285.28;1724348;83;21126;-58
2023/04/28 01:44:15;;;;;;;4.30;1.42;;;;;;;8.10;62.83;100284.63;1724236;83;21207;-59
2023/04/28 01:46:45;;;;;;;5.40;1.40;;;;;;;8.08;62.94;100288.90;1724224;83;21178;-58
2023/04/28 01:49:14;;;;;;;3.67;1.32;;;;;;;8.10;63.09;100291.44;1724439;83;21139;-59
2023/04/28 01:51:43;;;;;;;4.03;1.32;;;;;;;8.10;63.01;100281.89;1724769;83;21178;-58
2023/04/28 01:54:13;;;;;;;4.85;1.27;;;;;;;8.09;62.86;100276.95;1724616;83;21573;-58
2023/04/28 01:56:43;;;;;;;4.30;1.57;;;;;;;8.08;63.06;100278.50;1724499;83;21170;-59
2023/04/28 01:59:16;;;;;;;3.87;1.40;;;;;;;8.07;63.09;100269.47;1724443;83;21229;-59
2023/04/28 02:01:45;;;;;;;5.35;1.85;;;;;;;8.06;62.82;100275.11;1724402;83;21154;-58
2023/04/28 02:04:15;;;;;;;3.58;1.50;;;;;;;8.02;62.71;100272.42;1724397;83;21146;-58
2023/04/28 02:06:45;;;;;;;3.27;1.30;;;;;;;7.98;62.79;100277.91;1724400;83;21142;-59
2023/04/28 02:09:15;;;;;;;3.60;1.50;;;;;;;7.97;62.94;100284.40;1724393;83;21178;-58
2023/04/28 02:11:44;;;;;;;4.72;1.37;;;;;;;7.96;62.99;100278.09;1716138;83;21202;-58
2023/04/28 02:14:13;;;;;;;4.00;1.20;;;;;;;7.95;62.94;100276.40;1704438;84;21174;-58
2023/04/28 02:16:43;;;;;;;8.58;1.87;;;;;;;7.93;62.89;100286.13;1704512;84;21115;-58
2023/04/28 02:19:13;;;;;;;6.22;1.52;;;;;;;7.90;62.89;100290.59;1704390;84;21554;-59
2023/04/28 02:21:42;;;;;;;4.75;1.30;;;;;;;7.88;63.04;100291.29;1684396;84;21135;-59
2023/04/28 02:24:11;;;;;;;3.67;1.30;;;;;;;7.86;63.13;100300.69;1704337;83;21127;-60
2023/04/28 02:26:40;;;;;;;3.15;1.30;;;;;;;7.83;63.15;100301.05;1703879;84;21140;-59
2023/04/28 02:29:09;;;;;;;3.62;1.67;;;;;;;7.82;63.27;100300.72;1703934;84;21171;-59
2023/04/28 02:31:38;;;;;;;6.12;1.40;;;;;;;7.81;63.35;100300.38;1704113;84;21159;-60
2023/04/28 02:34:07;;;;;;;4.55;1.25;;;;;;;7.79;63.06;100296.45;1703896;84;21621;-59
2023/04/28 02:36:37;;;;;;;3.50;1.52;;;;;;;7.77;63.14;100297.14;1703959;83;21167;-59
2023/04/28 02:39:06;;;;;;;4.78;1.25;;;;;;;7.75;63.23;100293.75;1703867;84;21143;-59
2023/04/28 02:41:35;;;;;;;1.80;1.20;;;;;;;7.75;63.38;100294.27;1703954;84;21189;-60
2023/04/28 02:44:04;;;;;;;3.17;1.30;;;;;;;7.72;63.31;100290.02;1703806;84;21155;-60
2023/04/28 02:46:33;;;;;;;3.62;1.70;;;;;;;7.70;63.14;100287.14;1704000;84;21351;-59
2023/04/28 02:49:03;;;;;;;3.77;1.50;;;;;;;7.68;63.13;100298.75;1703986;83;21150;-58
2023/04/28 02:51:33;;;;;;;2.55;1.50;;;;;;;7.65;63.33;100302.69;1703766;84;21139;-60
2023/04/28 02:54:04;;;;;;;3.98;1.70;;;;;;;7.63;63.45;100304.23;1704311;84;21135;-59
2023/04/28 02:56:35;;;;;;;4.10;1.52;;;;;;;7.63;63.43;100308.84;1704043;84;21139;-58
2023/04/28 02:59:06;;;;;;;4.53;1.65;;;;;;;7.63;63.48;100310.20;1703895;83;21131;-59
2023/04/28 03:01:36;;;;;;;4.67;1.75;;;;;;;7.62;63.49;100313.44;1703885;84;21166;-59
2023/04/28 03:04:06;;;;;;;3.42;1.40;;;;;;;7.60;63.24;100315.50;1703841;83;21214;-60
2023/04/28 03:06:36;;;;;;;4.50;2.10;;;;;;;7.59;63.13;100317.05;1704124;83;21143;-57
2023/04/28 03:09:05;;;;;;;4.17;1.80;;;;;;;7.58;63.24;100324.38;1703914;84;21566;-59
2023/04/28 03:11:35;;;;;;;6.03;1.70;;;;;;;7.58;63.24;100330.34;1687042;83;21135;-58
2023/04/28 03:14:04;;;;;;;10.40;1.90;;;;;;;7.58;63.40;100334.44;1714074;84;21162;-58
2023/04/28 03:16:33;;;;;;;4.30;1.37;;;;;;;7.56;63.34;100336.48;1713989;84;21199;-58
2023/04/28 03:19:02;;;;;;;4.15;1.72;;;;;;;7.57;63.39;100343.64;1714024;84;21178;-58
2023/04/28 03:21:32;;;;;;;4.58;1.90;;;;;;;7.55;63.33;100349.27;1714077;84;21214;-59
2023/04/28 03:24:02;;;;;;;2.75;1.60;;;;;;;7.55;63.41;100353.88;1714179;84;21135;-58
2023/04/28 03:26:33;;;;;;;2.58;1.35;;;;;;;7.55;63.49;100353.88;1714187;84;21143;-59
2023/04/28 03:29:02;;;;;;;4.33;1.47;;;;;;;7.56;63.39;100360.52;1714165;84;21154;-60
2023/04/28 03:31:32;;;;;;;4.30;1.80;;;;;;;7.55;63.25;100357.45;1714028;84;21162;-59
2023/04/28 03:34:03;;;;;;;4.92;2.00;;;;;;;7.56;63.17;100359.67;1713971;84;21131;-59
2023/04/28 03:36:32;;;;;;;3.60;1.55;;;;;;;7.56;63.17;100366.48;1714044;84;21170;-57
2023/04/28 03:39:03;;;;;;;4.40;1.70;;;;;;;7.56;63.08;100375.52;1713497;83;21127;-58
2023/04/28 03:41:32;;;;;;;3.47;1.52;;;;;;;7.55;63.05;100370.23;1714038;84;21546;-57
2023/04/28 03:44:22;;;;;;;3.15;1.65;;;;;;;7.55;62.99;100378.42;1714438;84;21138;-60
2023/04/28 03:46:53;;;;;;;3.75;1.52;;;;;;;7.55;62.82;100374.33;1713990;84;21224;-59
2023/04/28 03:49:22;;;;;;;3.85;1.60;;;;;;;7.52;62.64;100389.16;1714034;84;21182;-58
2023/04/28 03:51:51;;;;;;;4.08;1.98;;;;;;;7.50;62.54;100387.64;1713959;84;21611;-57
2023/04/28 03:54:20;;;;;;;3.72;1.90;;;;;;;7.48;62.36;100386.97;1714344;84;21162;-59
2023/04/28 03:56:50;;;;;;;5.20;1.95;;;;;;;7.46;62.51;100385.79;1714022;84;21134;-58
2023/04/28 03:59:19;;;;;;;4.00;1.70;;;;;;;7.45;62.33;100388.69;1714082;84;21170;-58
2023/04/28 04:01:51;;;;;;;4.55;1.55;;;;;;;7.41;62.13;100394.16;1714352;84;21174;-57
2023/04/28 04:04:20;;;;;;;10.18;2.00;;;;;;;7.39;62.34;100383.95;1714058;84;21190;-59
2023/04/28 04:06:54;;;;;;;5.03;1.50;;;;;;;7.39;62.44;100390.77;1714349;84;21135;-59
2023/04/28 04:09:25;;;;;;;4.60;1.70;;;;;;;7.40;62.23;100392.47;1714287;84;21167;-59
2023/04/28 04:11:54;;;;;;;9.03;1.95;;;;;;;7.38;62.27;100390.43;1714355;83;21130;-58
2023/04/28 04:14:23;;;;;;;11.40;1.80;;;;;;;7.37;62.32;100394.19;1705101;83;21191;-57
2023/04/28 04:16:54;;;;;;;3.67;1.70;;;;;;;7.36;62.08;100397.94;1703992;84;21211;-58
2023/04/28 04:19:25;;;;;;;7.97;1.90;;;;;;;7.31;62.24;100391.14;1703861;84;21154;-59
2023/04/28 04:21:57;;;;;;;2.98;1.50;;;;;;;7.32;62.20;100400.17;1704084;83;21232;-58
2023/04/28 04:24:27;;;;;;;4.30;1.65;;;;;;;7.31;62.07;100399.31;1704074;84;21178;-57
2023/04/28 04:26:56;;;;;;;6.37;1.60;;;;;;;7.33;62.39;100395.56;1683792;84;21243;-59
2023/04/28 04:29:33;;;;;;;6.20;1.65;;;;;;;7.42;62.14;100402.17;1829825;77;22113;-57
2023/04/28 04:32:06;;;;;;;5.10;1.80;;;;;;;7.41;61.95;100405.07;1788620;80;21526;-60
2023/04/28 04:34:36;;;;;;;11.03;2.17;;;;;;;7.43;61.92;100409.31;1768856;80;21165;-58
2023/04/28 04:37:06;;;;;;;6.72;1.77;;;;;;;7.44;61.72;100408.29;1788585;80;21596;-62
2023/04/28 04:39:36;;;;;;;5.35;1.85;;;;;;;7.48;61.65;100406.91;1788598;79;21146;-58
2023/04/28 04:42:06;;;;;;;5.95;2.00;;;;;;;7.51;61.72;100404.34;1768652;80;21145;-59
2023/04/28 04:44:45;;;;;;;5.53;1.87;;;;;;;7.54;61.64;100405.34;1787427;80;21589;-59
2023/04/28 04:47:22;;;;;;;5.67;1.80;;;;;;;7.60;61.66;100406.00;1787795;80;21181;-59
2023/04/28 04:49:52;;;;;;;12.03;2.35;;;;;;;7.63;61.11;100407.85;1788559;80;21600;-58
2023/04/28 04:52:21;;;;;;;5.55;1.70;;;;;;;7.64;60.91;100408.19;1788540;80;21519;-59
2023/04/28 04:54:52;;;;;;;6.80;1.82;;;;;;;7.69;61.06;100414.98;1788639;80;21115;-59
2023/04/28 04:57:21;;;;;;;5.25;1.67;;;;;;;7.74;60.85;100407.11;1788646;80;21111;-58
2023/04/28 05:00:06;;;;;;;6.42;2.70;;;;;;;7.78;60.67;100405.73;1788372;80;21142;-58
2023/04/28 05:02:36;;;;;;;5.25;2.40;;;;;;;7.83;60.69;100408.28;1788689;79;21146;-60
2023/04/28 05:05:07;;;;;;;4.12;2.00;;;;;;;7.88;60.60;100414.05;1788492;79;21214;-60
2023/04/28 05:07:40;;;;;;;4.03;1.72;;;;;;;7.94;60.24;100414.69;1786969;80;21147;-59
2023/04/28 05:10:11;;;;;;;4.47;1.82;;;;;;;8.02;60.04;100415.66;1788479;79;21115;-60
2023/04/28 05:12:43;;;;;;;6.90;1.90;;;;;;;8.09;59.98;100411.18;1788587;80;21451;-60
2023/04/28 05:15:15;;;;;;;5.42;2.55;;;;;;;8.16;59.58;100416.24;1788456;80;21119;-59
2023/04/28 05:17:46;;;;;;;5.75;2.17;;;;;;;8.20;59.53;100415.70;1788321;80;21597;-60
2023/04/28 05:20:17;;;;;;;4.15;2.10;;;;;;;8.29;59.37;100416.48;1788399;79;21593;-59
2023/04/28 05:22:46;;;;;;;8.03;2.40;;;;;;;8.34;58.98;100418.19;1788585;80;21313;-59
2023/04/28 05:25:16;;;;;;;5.15;1.90;;;;;;;8.37;58.66;100412.88;1704707;84;21458;-58
2023/04/28 05:27:45;;;;;;;5.62;2.87;;;;;;;8.39;58.66;100422.58;1703968;84;21257;-58
2023/04/28 05:30:15;;;;;;;12.70;3.27;;;;;;;8.41;58.41;100421.88;1699969;83;21183;-59
2023/04/28 05:32:45;;;;;;;8.88;3.00;;;;;;;8.41;58.07;100423.24;1700422;84;21127;-59
2023/04/28 05:35:17;;;;;;;7.83;2.87;;;;;;;8.44;58.32;100424.24;1700021;84;21127;-59
2023/04/28 05:37:48;;;;;;;8.38;3.10;;;;;;;8.43;57.81;100424.42;1700059;84;21610;-59
2023/04/28 05:40:17;;;;;;;7.47;2.85;;;;;;;8.42;58.15;100426.83;1699553;84;21127;-61
2023/04/28 05:42:48;;;;;;;8.35;2.33;;;;;;;8.43;57.97;100423.91;1717246;80;21162;-59
2023/04/28 05:45:18;;;;;;;7.05;2.50;;;;;;;8.42;58.14;100423.58;1782758;80;21142;-59
2023/04/28 05:47:49;;;;;;;8.68;2.00;;;;;;;8.44;58.08;100424.24;1783310;79;21556;-60
2023/04/28 05:50:19;;;;;;;4.08;1.62;;;;;;;8.47;58.05;100428.00;1784495;80;21151;-60
2023/04/28 05:52:47;;;;;;;6.85;1.85;;;;;;;8.53;57.94;100432.73;1783252;79;21691;-59
2023/04/28 05:55:18;;;;;;;3.62;1.65;;;;;;;8.57;57.54;100430.48;1782929;80;21163;-59
2023/04/28 05:57:48;;;;;;;4.55;1.52;;;;;;;8.63;57.47;100430.27;1782754;79;21135;-60
2023/04/28 06:00:20;;;;;;;8.50;2.25;;;;;;;8.69;57.25;100429.52;1782600;80;21088;-58
2023/04/28 06:02:51;;;;;;;4.72;1.60;;;;;;;8.72;56.90;100424.53;1782943;80;21106;-59
2023/04/28 06:05:21;;;;;;;3.92;1.72;;;;;;;8.78;57.00;100422.43;1782707;80;21112;-59
2023/04/28 06:07:54;;;;;;;3.87;1.67;;;;;;;8.87;57.03;100415.00;1782876;80;21111;-59
2023/04/28 06:10:25;;;;;;;3.47;1.75;;;;;;;8.97;56.66;100416.94;1782694;79;21181;-59
2023/04/28 06:12:55;;;;;;;4.95;1.70;;;;;;;9.06;56.17;100414.45;1782710;80;21543;-60
2023/04/28 06:15:24;;;;;;;3.98;1.77;;;;;;;9.16;55.72;100412.31;1782659;80;21495;-59
2023/04/28 06:17:53;;;;;;;5.03;1.30;;;;;;;9.27;54.61;100408.78;1782599;80;21087;-61
2023/04/28 06:20:23;;;;;;;3.37;1.62;;;;;;;9.36;53.63;100412.59;1782659;80;21202;-59
2023/04/28 06:22:52;;;;;;;4.25;1.40;;;;;;;9.48;53.68;100411.59;1782517;80;21143;-59
2023/04/28 06:25:22;;;;;;;2.95;1.17;;;;;;;9.57;53.16;100417.29;1783138;80;21088;-59
2023/04/28 06:27:53;;;;;;;3.52;1.40;;;;;;;9.73;52.99;100418.44;1763815;80;21143;-58
2023/04/28 06:30:23;;;;;;;2.58;1.12;;;;;;;10.06;52.37;100418.00;1788121;79;21150;-59
2023/04/28 06:32:53;;;;;;;4.25;1.30;;;;;;;10.48;50.09;100416.70;1788230;80;21582;-58
2023/04/28 06:35:23;;;;;;;2.77;0.98;;;;;;;10.94;48.91;100410.75;1788211;80;21115;-59
2023/04/28 06:37:53;;;;;;;3.35;1.07;;;;;;;11.37;48.23;100413.37;1788372;80;21147;-59
2023/04/28 06:40:23;;;;;;;2.55;0.95;;;;;;;11.78;46.48;100422.18;1788318;80;21418;-59
2023/04/28 06:42:56;;;;;;;2.67;0.98;;;;;;;12.15;45.19;100430.43;1788005;80;21067;-59
2023/04/28 06:45:29;;;;;;;7.78;1.30;;;;;;;12.52;42.76;100420.28;1787620;80;21103;-58
2023/04/28 06:47:59;;;;;;;4.28;1.20;;;;;;;12.86;42.85;100424.73;1788578;80;21114;-60
2023/04/28 06:50:29;;;;;;;1.55;0.82;;;;;;;13.19;42.14;100421.16;1788603;80;21103;-59
2023/04/28 06:52:59;;;;;;;2.50;1.37;;;;;;;13.42;40.39;100438.05;1788205;80;21531;-60
2023/04/28 06:55:30;;;;;;;2.12;1.20;;;;;;;13.60;41.04;100421.69;1788301;79;21111;-58
2023/04/28 06:58:00;;;;;;;3.10;1.00;;;;;;;13.80;40.47;100429.05;1788024;79;21174;-59
2023/04/28 07:00:30;;;;;;;3.50;1.10;;;;;;;14.07;39.11;100433.91;1788525;80;21138;-61
2023/04/28 07:02:59;;;;;;;5.67;1.22;;;;;;;14.23;38.81;100424.59;1788288;80;21559;-60
2023/04/28 07:05:30;;;;;;;3.22;1.15;;;;;;;14.50;39.19;100441.03;1788446;80;21143;-61
2023/04/28 07:08:01;;;;;;;5.62;1.52;;;;;;;14.75;38.07;100436.39;1788089;79;21083;-60
2023/04/28 07:10:30;;;;;;;2.27;1.02;;;;;;;14.93;38.01;100433.37;1788164;80;21107;-60
2023/04/28 07:12:59;;;;;;;1.52;0.90;;;;;;;15.18;37.09;100435.62;1788219;80;21115;-59
2023/04/28 07:15:30;;;;;;;2.72;1.12;;;;;;;15.39;36.05;100432.42;1788171;80;21146;-59
2023/04/28 07:18:00;;;;;;;1.47;0.95;;;;;;;15.52;34.65;100432.28;1788041;80;21185;-58
2023/04/28 07:20:30;;;;;;;5.20;1.20;;;;;;;15.59;34.66;100442.45;1788050;80;21133;-60
2023/04/28 07:23:04;;;;;;;4.65;2.00;;;;;;;15.64;33.65;100445.39;1788387;80;21103;-58
2023/04/28 07:25:34;;;;;;;3.72;1.50;;;;;;;15.71;33.35;100438.72;1788350;79;21522;-59
2023/04/28 07:28:03;;;;;;;5.80;1.42;;;;;;;15.87;32.94;100438.63;1787903;80;21165;-61
2023/04/28 07:30:33;;;;;;;5.08;1.20;;;;;;;16.00;32.32;100447.30;1774894;79;21183;-59
2023/04/28 07:33:02;;;;;;;4.08;0.93;;;;;;;16.04;31.32;100456.81;1774632;81;21124;-58
2023/04/28 07:35:32;;;;;;;3.02;1.17;;;;;;;16.04;31.43;100438.30;1774424;79;21147;-61
2023/04/28 07:38:03;;;;;;;3.58;1.10;;;;;;;16.11;30.22;100441.83;1763824;81;21115;-58
2023/04/28 07:40:34;;;;;;;2.55;1.30;;;;;;;16.13;30.08;100449.34;1774644;79;21141;-59
2023/04/28 07:43:02;;;;;;;12.40;5.50;;;;;;;16.17;30.84;100449.19;1774400;81;21139;-60
2023/04/28 07:45:32;;;;;;;3.67;1.92;;;;;;;16.18;29.17;100443.96;1774456;81;21191;-60
2023/04/28 07:48:02;;;;;;;3.95;1.80;;;;;;;16.10;29.53;100447.05;1774322;81;21116;-59
2023/04/28 07:50:33;;;;;;;4.92;1.40;;;;;;;16.11;29.25;100458.41;1774440;81;21190;-59
2023/04/28 07:53:04;;;;;;;3.77;1.32;;;;;;;16.12;29.85;100443.52;1774434;81;21166;-60
2023/04/28 07:55:33;;;;;;;4.55;1.10;;;;;;;16.32;29.57;100460.40;1768528;79;21623;-59
2023/04/28 07:58:03;;;;;;;2.58;1.05;;;;;;;16.49;28.42;100453.13;1748581;79;21167;-60
2023/04/28 08:00:32;;;;;;;4.50;1.30;;;;;;;16.52;28.76;100448.52;1764089;81;21554;-58
2023/04/28 08:03:02;;;;;;;5.67;1.70;;;;;;;16.59;27.98;100438.73;1732738;83;21567;-59
2023/04/28 08:05:32;;;;;;;4.33;1.55;;;;;;;16.61;27.90;100444.33;1756052;81;21087;-59
2023/04/28 08:08:02;;;;;;;2.17;1.07;;;;;;;16.65;28.44;100441.42;1773565;81;21123;-59
2023/04/28 08:10:32;;;;;;;1.02;0.82;;;;;;;16.71;28.20;100447.39;1772438;81;21111;-59
2023/04/28 08:13:01;;;;;;;2.58;1.20;;;;;;;16.63;28.48;100444.09;1772406;81;21160;-60
2023/04/28 08:15:30;;;;;;;2.00;1.15;;;;;;;16.59;28.74;100443.72;1772517;81;21108;-59
2023/04/28 08:17:59;;;;;;;2.77;1.10;;;;;;;16.62;29.25;100454.31;1772599;81;21139;-58
2023/04/28 08:20:29;;;;;;;10.58;2.87;;;;;;;16.75;28.49;100441.69;1706443;83;21151;-58
2023/04/28 08:22:58;;;;;;;5.42;1.60;;;;;;;16.87;28.74;100442.25;1772451;81;21249;-58
2023/04/28 08:25:27;;;;;;;2.40;1.40;;;;;;;17.08;28.93;100439.78;1772786;81;21178;-59
2023/04/28 08:27:56;;;;;;;2.67;1.15;;;;;;;17.36;29.06;100446.53;1772860;81;21167;-60
2023/04/28 08:30:25;;;;;;;2.33;1.10;;;;;;;17.57;28.49;100450.64;1705848;84;21129;-59
2023/04/28 08:32:54;;;;;;;4.00;1.40;;;;;;;17.71;27.65;100447.95;1764612;80;21143;-58
2023/04/28 08:35:23;;;;;;;2.47;1.20;;;;;;;17.79;28.13;100445.34;1764251;80;21149;-58
2023/04/28 08:37:52;;;;;;;4.40;1.20;;;;;;;17.88;28.15;100441.11;1764503;80;21554;-59
2023/04/28 08:40:23;;;;;;;3.25;1.20;;;;;;;18.01;27.83;100447.76;1764522;81;21580;-58
2023/04/28 08:42:53;;;;;;;4.00;1.07;;;;;;;18.18;27.74;100445.05;1764247;80;21209;-60
2023/04/28 08:45:24;;;;;;;5.50;1.85;;;;;;;18.33;27.60;100437.06;1714044;81;21491;-60
2023/04/28 08:47:55;;;;;;;4.12;1.40;;;;;;;18.44;27.74;100446.42;1764255;81;21146;-59
2023/04/28 08:50:24;;;;;;;2.35;1.12;;;;;;;18.48;27.68;100434.58;1764387;80;21090;-59
2023/04/28 08:52:53;;;;;;;3.22;1.20;;;;;;;18.36;27.25;100447.66;1764438;80;21080;-59
2023/04/28 08:55:22;;;;;;;3.62;1.80;;;;;;;18.10;27.50;100446.28;1764245;80;21193;-59
2023/04/28 08:57:51;;;;;;;4.37;1.42;;;;;;;17.99;27.68;100434.14;1764400;80;21834;-60
2023/04/28 09:00:20;;;;;;;5.35;1.32;;;;;;;17.86;27.70;100433.58;1764314;81;21185;-60
2023/04/28 09:02:49;;;;;;;1.55;1.10;;;;;;;17.78;27.88;100446.43;1764587;80;21553;-60
2023/04/28 09:05:19;;;;;;;4.08;1.20;;;;;;;17.50;27.59;100442.43;1756878;81;21146;-58
2023/04/28 09:07:50;;;;;;;2.10;1.30;;;;;;;17.23;28.33;100433.77;1751478;81;21151;-59
2023/04/28 09:10:22;;;;;;;3.58;1.02;;;;;;;17.10;28.84;100445.08;1751795;82;21123;-59
2023/04/28 09:12:54;;;;;;;4.72;2.17;;;;;;;17.06;28.49;100441.95;1751370;82;21091;-58
2023/04/28 09:15:35;;;;;;;3.50;1.30;;;;;;;16.99;28.79;100436.22;1751850;82;21657;-59
2023/04/28 09:18:08;;;;;;;6.00;1.40;;;;;;;16.77;29.01;100440.91;1751853;82;21154;-59
2023/04/28 09:20:37;;;;;;;5.75;1.15;;;;;;;16.56;29.34;100438.66;1751778;82;21167;-60
2023/04/28 09:23:21;;;;;;;3.90;1.17;;;;;;;16.37;29.26;100443.95;1752323;81;21237;-59
2023/04/28 09:26:02;;;;;;;2.67;1.10;;;;;;;16.11;28.69;100445.97;1754294;82;21565;-59
2023/04/28 09:28:34;;;;;;;5.12;1.40;;;;;;;15.91;28.91;100452.83;1754119;80;21123;-58
2023/04/28 09:31:04;;;;;;;1.87;1.20;;;;;;;15.77;29.74;100435.03;1757867;81;21170;-59
2023/04/28 09:33:33;;;;;;;4.58;1.07;;;;;;;15.65;30.01;100443.78;1757193;80;21138;-60
2023/04/28 09:36:05;;;;;;;2.90;0.98;;;;;;;15.59;30.22;100447.43;1757012;82;21083;-59
2023/04/28 09:38:38;;;;;;;3.35;1.05;;;;;;;15.51;30.13;100445.78;1757027;82;21146;-59
2023/04/28 09:41:08;;;;;;;2.72;0.90;;;;;;;15.38;30.08;100444.55;1740811;82;21126;-60
2023/04/28 09:43:37;;;;;;;3.90;0.98;;;;;;;15.19;30.36;100429.87;1757110;82;21186;-58
2023/04/28 09:46:05;;;;;;;3.60;1.10;;;;;;;15.03;30.80;100432.37;1756863;82;21760;-61
2023/04/28 09:48:38;;;;;;;3.80;1.20;;;;;;;14.93;30.73;100440.27;1757206;82;21201;-59
2023/04/28 09:51:08;;;;;;;2.72;1.00;;;;;;;14.89;31.07;100444.02;1756834;80;21162;-58
2023/04/28 09:53:39;;;;;;;3.83;0.88;;;;;;;14.90;31.71;100451.23;1757057;81;21151;-57
2023/04/28 09:56:08;;;;;;;1.80;0.65;;;;;;;14.90;31.21;100432.77;1756947;82;21276;-59
2023/04/28 09:58:39;;;;;;;3.52;1.20;;;;;;;14.87;31.57;100429.61;1756937;82;21174;-58
2023/04/28 10:01:10;;;;;;;3.15;1.07;;;;;;;14.87;32.03;100431.83;1757069;82;21162;-59
2023/04/28 10:03:39;;;;;;;8.18;1.00;;;;;;;14.87;31.98;100443.40;1740800;82;21178;-58
2023/04/28 10:06:09;;;;;;;5.75;1.05;;;;;;;14.87;32.14;100435.12;1785589;80;21083;-59
2023/04/28 10:08:39;;;;;;;15.10;3.20;;;;;;;14.82;31.74;100451.51;1787913;80;21531;-59
2023/04/28 10:11:08;;;;;;;3.40;1.30;;;;;;;14.68;32.42;100446.63;1788090;80;21087;-59
2023/04/28 10:13:37;;;;;;;3.05;1.10;;;;;;;14.63;32.42;100453.87;1788235;80;21602;-60
2023/04/28 10:16:07;;;;;;;2.45;0.90;;;;;;;14.63;32.31;100447.83;1788175;80;21150;-59
2023/04/28 10:18:37;;;;;;;2.00;1.02;;;;;;;14.69;32.38;100446.94;1770783;80;21543;-59
2023/04/28 10:21:06;;;;;;;4.00;1.00;;;;;;;14.73;32.18;100435.77;1788015;80;21115;-61
2023/04/28 10:24:16;;;;;;;3.98;1.10;;;;;;;14.75;31.84;100423.98;1788050;80;21103;-59
2023/04/28 10:26:59;;;;;;;2.87;1.05;;;;;;;14.73;32.13;100422.51;1788037;80;21131;-60
2023/04/28 10:29:28;;;;;;;7.97;4.12;;;;;;;14.65;31.76;100430.53;1785341;80;21249;-60
2023/04/28 10:32:17;;;;;;;5.75;1.20;;;;;;;14.49;32.17;100442.94;1774317;79;21108;-58
2023/04/28 10:34:47;;;;;;;3.15;1.10;;;;;;;14.45;32.36;100446.37;1774532;81;21139;-59
2023/04/28 10:37:17;;;;;;;6.65;1.22;;;;;;;14.41;32.04;100441.80;1774263;81;21163;-59
2023/04/28 10:40:31;;;;;;;2.20;0.98;;;;;;;14.39;31.83;100449.44;1763388;81;21146;-58
2023/04/28 10:42:59;;;;;;;5.37;2.75;;;;;;;14.34;31.68;100438.77;1774172;81;21116;-59
2023/04/28 10:46:00;;;;;;;4.40;1.10;;;;;;;14.17;31.90;100443.39;1774623;81;21076;-59
2023/04/28 10:48:50;;;;;;;3.02;1.10;;;;;;;14.15;32.59;100454.32;1774305;81;21167;-59
2023/04/28 10:51:24;;;;;;;1.72;0.93;;;;;;;14.21;32.45;100441.04;1774091;79;21111;-59
2023/04/28 10:54:01;;;;;;;2.60;0.95;;;;;;;14.23;32.32;100429.27;1771265;80;21098;-58
2023/04/28 10:56:33;;;;;;;20.37;9.90;;;;;;;14.15;31.54;100435.88;1774131;81;21104;-59
2023/04/28 10:59:27;;;;;;;5.45;1.40;;;;;;;14.02;31.83;100430.97;1773990;81;21131;-59
2023/04/28 11:02:00;;;;;;;4.28;1.20;;;;;;;13.92;31.86;100432.81;1774595;81;21100;-58
2023/04/28 11:04:29;;;;;;;2.67;1.32;;;;;;;13.84;31.86;100441.33;1761542;80;21502;-59
2023/04/28 11:07:13;;;;;;;3.62;1.82;;;;;;;13.89;32.13;100436.01;1750032;80;21607;-58
2023/04/28 11:09:48;;;;;;;1.55;0.90;;;;;;;13.98;32.88;100444.87;1779750;80;21209;-58
2023/04/28 11:12:17;;;;;;;4.20;1.35;;;;;;;14.01;32.77;100443.90;1779819;80;21130;-60
2023/04/28 11:14:47;;;;;;;3.70;1.30;;;;;;;13.99;32.40;100439.14;1779561;80;21129;-58
2023/04/28 11:17:18;;;;;;;4.12;1.12;;;;;;;13.95;32.83;100435.98;1779822;80;21118;-56
2023/04/28 11:19:50;;;;;;;6.55;1.15;;;;;;;14.01;33.20;100434.26;1779565;80;21716;-59
2023/04/28 11:22:22;;;;;;;3.77;1.20;;;;;;;14.07;32.89;100418.75;1779648;80;21078;-59
2023/04/28 11:25:02;;;;;;;3.37;1.07;;;;;;;14.05;32.05;100420.35;1779584;80;21095;-58
2023/04/28 11:27:36;;;;;;;5.55;1.00;;;;;;;14.00;31.77;100425.67;1779701;80;21106;-61
2023/04/28 11:30:23;;;;;;;2.62;1.12;;;;;;;13.99;32.61;100431.41;1781363;80;21416;-59
2023/04/28 11:32:59;;;;;;;6.72;1.40;;;;;;;14.00;32.60;100431.72;1785157;80;21171;-59
2023/04/28 11:35:33;;;;;;;3.30;1.22;;;;;;;14.02;32.31;100422.70;1785688;80;21150;-60
2023/04/28 11:38:05;;;;;;;3.22;0.95;;;;;;;14.00;32.58;100416.56;1783706;80;21110;-61
2023/04/28 11:40:34;;;;;;;3.22;0.93;;;;;;;13.94;32.01;100415.54;1785405;80;21114;-60
2023/04/28 11:43:05;;;;;;;5.40;1.42;;;;;;;13.87;32.39;100419.70;1757486;79;21321;-58
2023/04/28 11:45:34;;;;;;;3.67;1.12;;;;;;;13.90;32.57;100429.44;1785601;80;21596;-58
2023/04/28 11:48:21;;;;;;;3.75;1.00;;;;;;;13.99;33.24;100423.98;1733036;80;21102;-59